Time;durP1;ratioP1;P1;durP2;ratioP2;P2;SDS_P1;SDS_P2;PMS_P1;PMS_P2;Temp;Humidity;BMP_temperature;BMP_pressure;BME280_temperature;BME280_humidity;BME280_pressure;Samples;Min_cycle;Max_cycle;Signal;HPM_P1;HPM_P2
2021/11/29 00:02:17;;;;;;;11.65;9.20;;;2.00;99.90;;;;;;5055265;28;20176;-74
2021/11/29 00:04:44;;;;;;;11.53;10.33;;;2.00;99.90;;;;;;5042455;28;20029;-74
2021/11/29 00:07:12;;;;;;;12.07;10.38;;;2.00;99.90;;;;;;5060238;28;20020;-74
2021/11/29 00:09:38;;;;;;;11.70;9.82;;;2.10;99.90;;;;;;5060286;28;20032;-75
2021/11/29 00:12:04;;;;;;;12.38;11.05;;;2.10;99.90;;;;;;5060231;28;20017;-73
2021/11/29 00:14:30;;;;;;;12.50;11.20;;;2.10;99.90;;;;;;5060395;28;20024;-74
2021/11/29 00:16:55;;;;;;;14.65;12.57;;;2.20;99.90;;;;;;5062900;28;20009;-76
2021/11/29 00:19:22;;;;;;;13.55;11.77;;;2.20;99.90;;;;;;5068343;28;20081;-75
2021/11/29 00:21:48;;;;;;;16.05;12.82;;;2.20;99.90;;;;;;5064881;28;20115;-74
2021/11/29 00:24:13;;;;;;;14.05;12.55;;;2.20;99.90;;;;;;5058634;28;20059;-74
2021/11/29 00:26:39;;;;;;;15.00;13.00;;;2.20;99.90;;;;;;5054443;28;20058;-74
2021/11/29 00:29:05;;;;;;;16.92;13.25;;;2.20;99.90;;;;;;5053280;28;20489;-76
2021/11/29 00:31:30;;;;;;;19.92;15.93;;;2.20;99.90;;;;;;5035757;28;20132;-74
2021/11/29 00:33:56;;;;;;;18.52;14.90;;;2.20;99.90;;;;;;5053165;28;20029;-74
2021/11/29 00:36:22;;;;;;;18.27;14.93;;;2.30;99.90;;;;;;5040979;28;20105;-74
2021/11/29 00:38:48;;;;;;;18.45;14.98;;;2.30;99.90;;;;;;5041085;28;20048;-73
2021/11/29 00:41:14;;;;;;;17.25;14.70;;;2.20;99.90;;;;;;5062890;28;20033;-74
2021/11/29 00:43:40;;;;;;;19.33;14.85;;;2.30;99.90;;;;;;5064478;28;20100;-72
2021/11/29 00:46:05;;;;;;;17.63;14.38;;;2.30;99.90;;;;;;5046663;28;20021;-74
2021/11/29 00:48:31;;;;;;;18.02;15.18;;;2.20;99.90;;;;;;5046336;28;20021;-73
2021/11/29 00:50:57;;;;;;;17.70;14.43;;;2.30;99.90;;;;;;5062340;28;20033;-74
2021/11/29 00:53:22;;;;;;;15.65;13.43;;;2.30;99.90;;;;;;5058620;28;20384;-74
2021/11/29 00:55:48;;;;;;;17.13;14.88;;;2.30;99.90;;;;;;5057859;28;20047;-74
2021/11/29 00:58:13;;;;;;;16.85;14.48;;;2.30;99.90;;;;;;5056559;28;20040;-73
2021/11/29 01:00:40;;;;;;;20.60;14.75;;;2.30;99.90;;;;;;5056199;28;20380;-74
2021/11/29 01:03:06;;;;;;;20.27;15.80;;;2.30;99.90;;;;;;5056175;28;20484;-75
2021/11/29 01:05:31;;;;;;;20.95;15.82;;;2.30;99.90;;;;;;5038445;28;20078;-74
2021/11/29 01:07:58;;;;;;;19.83;16.63;;;2.30;99.90;;;;;;5056452;28;20028;-74
2021/11/29 01:10:28;;;;;;;20.55;15.45;;;2.30;99.90;;;;;;5038325;28;20029;-72
2021/11/29 01:12:54;;;;;;;21.13;16.33;;;2.30;99.90;;;;;;5056046;28;20320;-74
2021/11/29 01:15:22;;;;;;;22.75;17.33;;;2.30;99.90;;;;;;5055751;28;20551;-74
2021/11/29 01:17:48;;;;;;;22.58;15.32;;;2.30;99.90;;;;;;5037791;28;20107;-74
2021/11/29 01:20:15;;;;;;;21.55;15.73;;;2.30;99.90;;;;;;5055660;28;20040;-73
2021/11/29 01:22:43;;;;;;;22.90;16.83;;;2.30;99.90;;;;;;5055048;28;20048;-74
2021/11/29 01:25:10;;;;;;;23.77;16.23;;;2.20;99.90;;;;;;5055297;28;20071;-74
2021/11/29 01:27:36;;;;;;;26.50;18.80;;;2.20;99.90;;;;;;5055051;28;20029;-75
2021/11/29 01:30:02;;;;;;;22.45;17.80;;;2.30;99.90;;;;;;5054851;28;20031;-74
2021/11/29 01:32:28;;;;;;;27.55;18.83;;;2.30;99.90;;;;;;5037090;28;20116;-74
2021/11/29 01:34:53;;;;;;;22.38;18.05;;;2.30;99.90;;;;;;5054556;28;20099;-74
2021/11/29 01:37:19;;;;;;;26.02;19.00;;;2.30;99.90;;;;;;5054953;28;20032;-74
2021/11/29 01:39:44;;;;;;;23.77;18.55;;;2.20;99.90;;;;;;5054895;28;20021;-75
2021/11/29 01:42:10;;;;;;;22.75;17.13;;;2.20;99.90;;;;;;5054343;28;20025;-74
2021/11/29 01:44:37;;;;;;;20.02;16.80;;;2.20;99.90;;;;;;5054799;28;20111;-74
2021/11/29 01:47:03;;;;;;;21.80;17.17;;;2.30;99.90;;;;;;5054775;28;20032;-74
2021/11/29 01:49:29;;;;;;;22.05;17.83;;;2.30;99.90;;;;;;5054392;28;20127;-74
2021/11/29 01:51:55;;;;;;;24.10;17.92;;;2.30;99.90;;;;;;5055101;28;20061;-74
2021/11/29 01:54:20;;;;;;;22.92;18.00;;;2.30;99.90;;;;;;5055797;28;20021;-74
2021/11/29 01:56:46;;;;;;;23.23;18.65;;;2.20;99.90;;;;;;5036859;28;20679;-74
2021/11/29 01:59:12;;;;;;;25.17;19.08;;;2.20;99.90;;;;;;5036927;28;20025;-73
2021/11/29 02:01:38;;;;;;;22.83;17.38;;;2.20;99.90;;;;;;5056715;28;20104;-74
2021/11/29 02:04:05;;;;;;;23.45;17.88;;;2.20;99.90;;;;;;5054806;28;20025;-74
2021/11/29 02:06:32;;;;;;;25.77;19.60;;;2.20;99.90;;;;;;5054803;28;20017;-73
2021/11/29 02:08:58;;;;;;;25.98;19.25;;;2.30;99.90;;;;;;5054595;28;20496;-72
2021/11/29 02:11:26;;;;;;;24.30;18.67;;;2.30;99.90;;;;;;5036406;28;20048;-73
2021/11/29 02:13:56;;;;;;;25.27;19.10;;;2.30;99.90;;;;;;5036655;28;20017;-73
2021/11/29 02:16:22;;;;;;;25.00;19.05;;;2.30;99.90;;;;;;5036712;28;20029;-73
2021/11/29 02:18:48;;;;;;;25.27;20.13;;;2.30;99.90;;;;;;5054297;28;20395;-73
2021/11/29 02:21:19;;;;;;;25.60;19.42;;;2.30;99.90;;;;;;5053929;28;20108;-73
2021/11/29 02:23:56;;;;;;;27.10;19.20;;;2.30;99.90;;;;;;5054526;28;20132;-73
2021/11/29 02:26:27;;;;;;;27.55;20.30;;;2.30;99.90;;;;;;5054130;28;20472;-74
2021/11/29 02:28:59;;;;;;;25.08;18.90;;;2.30;99.90;;;;;;5038533;28;20029;-73
2021/11/29 02:31:33;;;;;;;24.73;18.95;;;2.40;99.90;;;;;;5056643;28;20481;-73
2021/11/29 02:34:05;;;;;;;23.95;19.27;;;2.40;99.90;;;;;;5054627;28;20028;-73
2021/11/29 02:36:31;;;;;;;27.83;20.13;;;2.30;99.90;;;;;;5054410;28;20025;-73
2021/11/29 02:38:56;;;;;;;28.38;21.70;;;2.30;99.90;;;;;;5043256;28;20042;-73
2021/11/29 02:41:22;;;;;;;25.67;21.02;;;2.30;99.90;;;;;;5077213;28;20017;-71
2021/11/29 02:43:48;;;;;;;25.65;20.70;;;2.30;99.90;;;;;;5077005;28;20041;-73
2021/11/29 02:46:13;;;;;;;24.58;19.45;;;2.30;99.90;;;;;;5078095;28;20254;-73
2021/11/29 02:48:49;;;;;;;26.33;19.70;;;2.30;99.90;;;;;;5060295;28;20033;-73
2021/11/29 02:51:20;;;;;;;26.42;21.17;;;2.20;99.90;;;;;;5053822;28;20503;-73
2021/11/29 02:53:46;;;;;;;30.20;20.10;;;2.20;99.90;;;;;;5053401;28;20098;-73
2021/11/29 02:56:11;;;;;;;32.10;21.20;;;2.30;99.90;;;;;;5035489;28;20028;-74
2021/11/29 02:58:40;;;;;;;27.48;18.95;;;2.30;99.90;;;;;;5052989;28;20017;-73
2021/11/29 03:01:06;;;;;;;28.38;21.15;;;2.20;99.90;;;;;;5053130;28;20028;-74
2021/11/29 03:03:32;;;;;;;28.30;22.17;;;2.20;99.90;;;;;;5052127;28;20025;-74
2021/11/29 03:05:57;;;;;;;27.05;21.92;;;2.30;99.90;;;;;;5053011;28;20369;-74
2021/11/29 03:08:23;;;;;;;28.10;20.88;;;2.30;99.90;;;;;;5053165;28;20020;-73
2021/11/29 03:10:48;;;;;;;26.77;21.13;;;2.30;99.90;;;;;;5068954;28;20048;-73
2021/11/29 03:13:14;;;;;;;27.10;20.85;;;2.30;99.90;;;;;;5053492;28;20115;-74
2021/11/29 03:15:39;;;;;;;22.85;15.68;;;2.20;99.90;;;;;;5053280;28;20027;-73
2021/11/29 03:18:05;;;;;;;30.08;20.95;;;2.20;99.90;;;;;;5059052;28;20033;-73
2021/11/29 03:20:31;;;;;;;25.65;20.45;;;2.20;99.90;;;;;;5060328;28;20456;-73
2021/11/29 03:22:56;;;;;;;25.60;18.88;;;2.20;99.90;;;;;;5035673;28;20037;-75
2021/11/29 03:25:22;;;;;;;26.92;19.50;;;2.10;99.90;;;;;;5053910;28;20037;-74
2021/11/29 03:27:47;;;;;;;28.15;20.17;;;2.10;99.90;;;;;;5053325;28;20029;-75
2021/11/29 03:30:13;;;;;;;23.85;18.67;;;2.20;99.90;;;;;;5054153;28;20040;-75
2021/11/29 03:32:39;;;;;;;22.35;17.10;;;2.20;99.90;;;;;;5075219;28;20040;-74
2021/11/29 03:35:08;;;;;;;25.35;19.15;;;2.20;99.90;;;;;;5066462;28;20029;-72
2021/11/29 03:37:34;;;;;;;26.75;17.20;;;2.10;99.90;;;;;;5074516;28;20029;-72
2021/11/29 03:40:00;;;;;;;23.60;19.20;;;2.10;99.90;;;;;;5050121;28;20037;-72
2021/11/29 03:42:26;;;;;;;25.23;18.77;;;2.10;99.90;;;;;;5060807;28;20079;-73
2021/11/29 03:44:51;;;;;;;27.88;20.55;;;2.10;99.90;;;;;;5060865;28;20025;-74
2021/11/29 03:47:17;;;;;;;23.73;18.67;;;2.10;99.90;;;;;;5062654;28;20029;-74
2021/11/29 03:49:43;;;;;;;28.20;19.45;;;2.10;99.90;;;;;;5037199;28;20025;-74
2021/11/29 03:52:08;;;;;;;27.40;19.63;;;2.10;99.90;;;;;;5054992;28;20095;-73
2021/11/29 03:54:34;;;;;;;27.05;17.70;;;2.10;99.90;;;;;;5035546;28;20017;-73
2021/11/29 03:57:00;;;;;;;24.33;18.20;;;2.20;99.90;;;;;;5053435;28;20028;-74
2021/11/29 03:59:25;;;;;;;26.35;19.17;;;2.20;99.90;;;;;;5052879;28;20071;-74
2021/11/29 04:01:51;;;;;;;28.88;20.75;;;2.20;99.90;;;;;;5035079;28;20032;-74
2021/11/29 04:04:17;;;;;;;25.73;19.10;;;2.20;99.90;;;;;;5035654;28;20435;-73
2021/11/29 04:06:43;;;;;;;25.10;18.90;;;2.20;99.90;;;;;;5052317;28;20037;-74
2021/11/29 04:09:08;;;;;;;29.13;20.88;;;2.10;99.90;;;;;;5052212;28;20496;-74
2021/11/29 04:11:34;;;;;;;26.15;17.05;;;2.20;99.90;;;;;;5034228;28;20029;-74
2021/11/29 04:13:59;;;;;;;26.45;20.23;;;2.20;99.90;;;;;;5035041;28;20025;-74
2021/11/29 04:16:25;;;;;;;30.95;19.27;;;2.30;99.90;;;;;;5056194;28;20021;-74
2021/11/29 04:18:51;;;;;;;22.55;17.35;;;2.30;99.90;;;;;;5056090;28;20485;-73
2021/11/29 04:21:19;;;;;;;23.33;15.98;;;2.20;99.90;;;;;;5080230;22;20023;-73
2021/11/29 04:23:47;;;;;;;26.23;18.80;;;2.20;99.90;;;;;;5055518;28;20420;-73
2021/11/29 04:26:15;;;;;;;24.98;17.23;;;2.20;99.90;;;;;;5058193;28;20021;-73
2021/11/29 04:28:42;;;;;;;27.13;18.90;;;2.30;99.90;;;;;;5042809;28;20052;-73
2021/11/29 04:31:08;;;;;;;29.63;20.33;;;2.20;99.90;;;;;;5056844;28;20484;-72
2021/11/29 04:33:33;;;;;;;22.27;16.85;;;2.30;99.90;;;;;;5057946;28;20036;-72
2021/11/29 04:36:00;;;;;;;25.33;19.08;;;2.30;99.90;;;;;;5038419;28;20538;-73
2021/11/29 04:38:25;;;;;;;26.10;19.13;;;2.30;99.90;;;;;;5055574;28;20017;-72
2021/11/29 04:40:51;;;;;;;24.75;19.33;;;2.30;99.90;;;;;;5055852;28;20036;-72
2021/11/29 04:43:17;;;;;;;25.60;18.42;;;2.30;99.90;;;;;;5055818;28;20115;-73
2021/11/29 04:45:43;;;;;;;26.88;19.33;;;2.20;99.90;;;;;;5057119;28;20029;-73
2021/11/29 04:48:09;;;;;;;27.60;19.05;;;2.30;99.90;;;;;;5056772;28;20494;-72
2021/11/29 04:50:35;;;;;;;23.27;16.58;;;2.30;99.90;;;;;;5038700;28;20079;-72
2021/11/29 04:53:00;;;;;;;25.27;17.65;;;2.20;99.90;;;;;;5038711;28;20111;-72
2021/11/29 04:55:26;;;;;;;26.05;18.88;;;2.20;99.90;;;;;;5056763;28;20032;-74
2021/11/29 04:57:52;;;;;;;24.65;17.48;;;2.20;99.90;;;;;;5056871;28;20143;-72
2021/11/29 05:00:19;;;;;;;26.20;16.77;;;2.20;99.90;;;;;;5055979;28;20061;-73
2021/11/29 05:02:46;;;;;;;26.38;18.50;;;2.20;99.90;;;;;;5056302;28;20029;-74
2021/11/29 05:05:12;;;;;;;23.75;16.98;;;2.30;99.90;;;;;;5056573;28;20530;-72
2021/11/29 05:07:38;;;;;;;23.90;16.48;;;2.20;99.90;;;;;;5055571;28;20033;-72
2021/11/29 05:10:06;;;;;;;25.20;17.23;;;2.30;99.90;;;;;;5037222;28;20033;-73
2021/11/29 05:12:31;;;;;;;22.42;15.27;;;2.20;99.90;;;;;;5055185;28;20059;-72
2021/11/29 05:14:57;;;;;;;23.85;16.35;;;2.20;99.90;;;;;;5037172;28;20057;-72
2021/11/29 05:17:23;;;;;;;24.42;17.00;;;2.20;99.90;;;;;;5037085;28;20448;-72
2021/11/29 05:19:49;;;;;;;21.90;17.17;;;2.20;99.90;;;;;;5054892;28;20017;-72
2021/11/29 05:22:14;;;;;;;21.63;15.93;;;2.20;99.90;;;;;;5055005;28;20044;-73
2021/11/29 05:24:40;;;;;;;23.60;18.30;;;2.20;99.90;;;;;;5055162;28;20434;-73
2021/11/29 05:27:06;;;;;;;23.05;16.27;;;2.20;99.90;;;;;;5053798;28;20028;-72
2021/11/29 05:29:32;;;;;;;22.17;16.02;;;2.20;99.90;;;;;;5038227;28;20033;-73
2021/11/29 05:31:58;;;;;;;26.30;18.48;;;2.20;99.90;;;;;;5061971;28;20397;-73
2021/11/29 05:34:23;;;;;;;22.27;15.30;;;2.20;99.90;;;;;;5064734;28;20033;-73
2021/11/29 05:36:49;;;;;;;25.17;18.27;;;2.20;99.90;;;;;;5061051;28;20032;-73
2021/11/29 05:39:16;;;;;;;22.67;16.95;;;2.20;99.90;;;;;;5055093;28;20472;-73
2021/11/29 05:41:44;;;;;;;22.35;17.05;;;2.20;99.90;;;;;;5054295;28;20071;-73
2021/11/29 05:44:10;;;;;;;23.58;16.85;;;2.20;99.90;;;;;;5036919;28;20021;-73
2021/11/29 05:46:35;;;;;;;22.38;16.38;;;2.20;99.90;;;;;;5054675;28;20078;-74
2021/11/29 05:49:01;;;;;;;21.20;17.25;;;2.20;99.90;;;;;;5056073;28;20100;-73
2021/11/29 05:51:28;;;;;;;24.45;15.70;;;2.20;99.90;;;;;;5037570;28;20067;-72
2021/11/29 05:53:54;;;;;;;22.48;15.65;;;2.20;99.90;;;;;;5056255;28;20017;-72
2021/11/29 05:56:20;;;;;;;21.27;16.92;;;2.10;99.90;;;;;;5056888;28;20021;-72
2021/11/29 05:58:46;;;;;;;24.80;16.00;;;2.20;99.90;;;;;;5055695;28;20032;-71
2021/11/29 06:01:12;;;;;;;21.48;16.45;;;2.20;99.90;;;;;;5056952;28;20102;-73
2021/11/29 06:03:37;;;;;;;23.02;17.27;;;2.10;99.90;;;;;;5055907;28;20516;-73
2021/11/29 06:06:03;;;;;;;24.45;16.35;;;2.10;99.90;;;;;;5059926;28;20049;-73
2021/11/29 06:08:28;;;;;;;22.80;17.17;;;2.10;99.90;;;;;;5059863;28;20033;-73
2021/11/29 06:10:54;;;;;;;23.48;16.90;;;2.10;99.90;;;;;;5037932;28;20071;-72
2021/11/29 06:13:19;;;;;;;19.58;15.00;;;2.10;99.90;;;;;;5057374;28;20104;-73
2021/11/29 06:15:45;;;;;;;22.77;15.40;;;2.10;99.90;;;;;;5056478;28;20396;-73
2021/11/29 06:18:11;;;;;;;21.92;15.15;;;2.10;99.90;;;;;;5039766;28;20025;-74
2021/11/29 06:20:37;;;;;;;22.50;16.08;;;2.10;99.90;;;;;;5039357;28;20040;-73
2021/11/29 06:23:03;;;;;;;20.35;13.38;;;2.10;99.90;;;;;;5058376;28;20119;-73
2021/11/29 06:25:29;;;;;;;20.88;15.43;;;2.10;99.90;;;;;;5054427;28;20511;-73
2021/11/29 06:27:55;;;;;;;22.33;15.70;;;2.10;99.90;;;;;;5054400;28;20040;-73
2021/11/29 06:30:22;;;;;;;18.67;12.93;;;2.10;99.90;;;;;;5036516;28;20108;-73
2021/11/29 06:32:48;;;;;;;21.08;14.70;;;2.10;99.90;;;;;;5054291;28;20044;-72
2021/11/29 06:35:14;;;;;;;18.98;14.18;;;2.10;99.90;;;;;;5054333;28;20021;-73
2021/11/29 06:37:45;;;;;;;17.70;12.85;;;2.10;99.90;;;;;;5054443;28;20035;-74
2021/11/29 06:40:11;;;;;;;18.13;14.95;;;2.10;99.90;;;;;;5054295;28;20070;-73
2021/11/29 06:42:37;;;;;;;15.73;10.95;;;2.10;99.90;;;;;;5053841;28;20029;-72
2021/11/29 06:45:03;;;;;;;19.67;13.48;;;2.00;99.90;;;;;;5053818;28;20432;-72
2021/11/29 06:47:29;;;;;;;21.77;12.70;;;2.10;99.90;;;;;;5036109;28;20112;-72
2021/11/29 06:49:54;;;;;;;21.02;13.18;;;2.10;99.90;;;;;;5036000;28;20052;-72
2021/11/29 06:52:20;;;;;;;18.33;12.93;;;2.10;99.90;;;;;;5053344;28;20036;-72
2021/11/29 06:54:49;;;;;;;19.15;13.15;;;2.10;99.90;;;;;;5060896;28;20060;-73
2021/11/29 06:57:16;;;;;;;21.73;13.98;;;2.10;99.90;;;;;;5044989;28;20017;-72
2021/11/29 06:59:42;;;;;;;16.60;12.80;;;2.10;99.90;;;;;;5055569;28;20472;-73
2021/11/29 07:02:09;;;;;;;18.60;12.82;;;2.10;99.90;;;;;;5054938;28;20040;-73
2021/11/29 07:04:34;;;;;;;16.40;12.13;;;2.10;99.90;;;;;;5055346;28;20100;-72
2021/11/29 07:07:01;;;;;;;17.38;12.02;;;2.00;99.90;;;;;;5054474;28;20505;-73
2021/11/29 07:09:26;;;;;;;15.23;10.70;;;2.00;99.90;;;;;;5035815;28;20112;-73
2021/11/29 07:11:52;;;;;;;16.27;11.20;;;2.00;99.90;;;;;;5053195;28;20116;-73
2021/11/29 07:14:18;;;;;;;19.60;11.75;;;2.00;99.90;;;;;;5054504;28;20472;-72
2021/11/29 07:16:48;;;;;;;15.10;8.65;;;2.00;99.90;;;;;;5054528;28;20024;-73
2021/11/29 07:19:15;;;;;;;15.13;11.80;;;2.00;99.90;;;;;;5054627;28;20021;-73
2021/11/29 07:21:41;;;;;;;12.63;10.00;;;2.10;99.90;;;;;;5036753;28;20033;-74
2021/11/29 07:24:09;;;;;;;17.05;12.43;;;2.10;99.90;;;;;;5053976;28;20021;-72
2021/11/29 07:26:35;;;;;;;14.80;10.20;;;2.20;99.90;;;;;;5036020;28;20434;-74
2021/11/29 07:29:00;;;;;;;12.20;8.55;;;2.10;99.90;;;;;;5053420;28;20021;-73
2021/11/29 07:31:26;;;;;;;12.63;9.63;;;2.10;99.90;;;;;;5053711;28;20477;-73
2021/11/29 07:33:51;;;;;;;13.23;9.93;;;2.10;99.90;;;;;;5035620;28;20340;-72
2021/11/29 07:36:17;;;;;;;10.40;7.47;;;2.20;99.90;;;;;;5053237;28;20424;-73
2021/11/29 07:38:43;;;;;;;12.35;9.35;;;2.20;99.90;;;;;;5053480;28;20144;-74
2021/11/29 07:41:08;;;;;;;16.10;9.30;;;2.20;99.90;;;;;;5053276;28;20048;-73
2021/11/29 07:43:34;;;;;;;10.15;8.50;;;2.10;99.90;;;;;;5053478;28;20041;-73
2021/11/29 07:45:59;;;;;;;12.20;8.95;;;2.10;99.90;;;;;;5053574;28;20039;-74
2021/11/29 07:48:25;;;;;;;14.57;9.30;;;2.20;99.90;;;;;;5061127;28;20041;-72
2021/11/29 07:50:52;;;;;;;17.95;9.35;;;2.20;99.90;;;;;;5054005;28;20056;-73
2021/11/29 07:53:18;;;;;;;12.77;8.45;;;2.30;99.90;;;;;;5053585;28;20108;-72
2021/11/29 07:55:43;;;;;;;13.48;8.15;;;2.30;99.90;;;;;;5052303;28;20433;-72
2021/11/29 07:58:09;;;;;;;11.77;9.00;;;2.30;99.90;;;;;;5052455;28;20025;-72
2021/11/29 08:00:36;;;;;;;12.68;8.30;;;2.20;99.90;;;;;;5053003;28;20028;-72
2021/11/29 08:03:03;;;;;;;10.82;7.30;;;2.30;99.90;;;;;;5043270;28;20021;-72
2021/11/29 08:05:31;;;;;;;12.43;8.48;;;2.20;99.90;;;;;;5057600;28;20021;-72
2021/11/29 08:07:57;;;;;;;9.98;6.93;;;2.30;99.90;;;;;;5035037;28;20116;-73
2021/11/29 08:10:24;;;;;;;12.18;8.07;;;2.20;99.90;;;;;;5053251;28;20029;-72
2021/11/29 08:12:51;;;;;;;13.43;7.03;;;2.20;99.90;;;;;;5053117;28;20021;-73
2021/11/29 08:15:17;;;;;;;10.18;8.32;;;2.20;99.90;;;;;;5035528;28;20117;-72
2021/11/29 08:17:43;;;;;;;11.80;8.45;;;2.20;99.90;;;;;;5037862;28;20075;-72
2021/11/29 08:20:10;;;;;;;10.35;7.40;;;2.20;99.90;;;;;;5059930;28;20033;-72
2021/11/29 08:22:36;;;;;;;16.23;8.50;;;2.20;99.90;;;;;;5055603;28;20041;-74
2021/11/29 08:25:02;;;;;;;9.38;7.15;;;2.30;99.90;;;;;;5054015;28;20025;-74
2021/11/29 08:27:28;;;;;;;10.18;7.60;;;2.40;99.90;;;;;;5059149;28;20492;-72
2021/11/29 08:29:54;;;;;;;12.32;8.93;;;2.40;99.90;;;;;;5058649;28;20025;-73
2021/11/29 08:32:20;;;;;;;8.55;6.68;;;2.40;99.90;;;;;;5037671;28;20036;-74
2021/11/29 08:34:45;;;;;;;9.98;7.20;;;2.50;99.90;;;;;;5053502;28;20048;-73
2021/11/29 08:37:11;;;;;;;9.40;7.35;;;2.50;99.90;;;;;;5054986;28;20117;-73
2021/11/29 08:39:38;;;;;;;12.90;7.32;;;2.50;99.90;;;;;;5056977;28;20030;-74
2021/11/29 08:42:04;;;;;;;11.10;6.43;;;2.50;99.90;;;;;;5057231;28;20036;-74
2021/11/29 08:44:31;;;;;;;12.45;7.82;;;2.50;99.90;;;;;;5055229;28;20033;-75
2021/11/29 08:46:56;;;;;;;10.23;6.97;;;2.60;99.90;;;;;;5054059;28;20515;-73
2021/11/29 08:49:24;;;;;;;10.95;7.10;;;2.50;99.90;;;;;;5053204;28;20025;-73
2021/11/29 08:51:49;;;;;;;8.73;7.00;;;2.50;99.90;;;;;;5053400;28;20100;-75
2021/11/29 08:54:16;;;;;;;12.27;7.70;;;2.50;99.90;;;;;;5053672;28;20052;-73
2021/11/29 08:56:42;;;;;;;10.95;7.63;;;2.50;99.90;;;;;;5054158;28;20068;-72
2021/11/29 08:59:08;;;;;;;10.63;7.05;;;2.40;99.90;;;;;;5062164;28;20025;-73
2021/11/29 09:01:35;;;;;;;13.68;7.47;;;2.40;99.90;;;;;;5064140;28;20025;-73
2021/11/29 09:04:01;;;;;;;9.95;7.10;;;2.40;99.90;;;;;;5066004;28;20094;-73
2021/11/29 09:06:27;;;;;;;13.35;7.40;;;2.40;99.90;;;;;;5065423;28;20059;-73
2021/11/29 09:08:52;;;;;;;10.88;6.95;;;2.40;99.90;;;;;;5061741;28;20385;-73
2021/11/29 09:11:18;;;;;;;11.15;7.68;;;2.40;99.90;;;;;;5062041;28;20078;-73
2021/11/29 09:13:45;;;;;;;10.02;6.63;;;2.40;99.90;;;;;;5062554;28;20029;-74
2021/11/29 09:16:13;;;;;;;10.95;7.03;;;2.50;99.90;;;;;;5060730;28;20017;-72
2021/11/29 09:18:40;;;;;;;9.20;7.50;;;2.50;99.90;;;;;;5060257;28;20107;-73
2021/11/29 09:21:06;;;;;;;10.48;6.50;;;2.60;99.90;;;;;;5058210;28;20048;-74
2021/11/29 09:23:31;;;;;;;11.43;6.80;;;2.70;99.90;;;;;;5060860;28;20033;-73
2021/11/29 09:25:58;;;;;;;8.23;5.88;;;2.80;99.90;;;;;;5064012;28;20029;-73
2021/11/29 09:28:24;;;;;;;9.93;6.10;;;2.80;99.90;;;;;;5057658;28;20577;-74
2021/11/29 09:30:51;;;;;;;9.02;6.47;;;2.90;99.90;;;;;;5057101;28;20112;-74
2021/11/29 09:33:17;;;;;;;11.93;7.10;;;2.90;99.90;;;;;;5040852;28;20021;-73
2021/11/29 09:35:43;;;;;;;10.40;5.40;;;3.00;99.90;;;;;;5040045;28;20117;-74
2021/11/29 09:38:09;;;;;;;8.40;5.57;;;3.00;99.90;;;;;;5058396;28;20071;-73
2021/11/29 09:40:37;;;;;;;10.77;6.00;;;3.00;99.90;;;;;;5054732;28;20388;-73
2021/11/29 09:43:06;;;;;;;11.57;6.53;;;3.00;99.90;;;;;;5021311;28;20025;-73
2021/11/29 09:45:33;;;;;;;6.82;5.05;;;3.10;99.90;;;;;;5038102;28;20112;-73
2021/11/29 09:47:59;;;;;;;11.15;6.10;;;3.10;99.90;;;;;;5055698;28;20037;-73
2021/11/29 09:50:26;;;;;;;8.23;5.05;;;3.10;99.90;;;;;;5054904;28;20073;-73
2021/11/29 09:52:52;;;;;;;7.07;4.30;;;3.20;99.90;;;;;;5059512;28;20079;-73
2021/11/29 09:55:23;;;;;;;7.40;4.78;;;3.20;99.90;;;;;;5056487;28;20078;-73
2021/11/29 09:57:50;;;;;;;9.93;4.88;;;3.20;99.90;;;;;;5056756;28;20538;-73
2021/11/29 10:00:19;;;;;;;9.52;6.22;;;3.10;99.90;;;;;;5056529;28;20047;-73
2021/11/29 10:02:45;;;;;;;7.15;4.85;;;3.00;99.90;;;;;;5075127;28;20028;-73
2021/11/29 10:05:11;;;;;;;7.28;4.50;;;3.00;99.90;;;;;;5065047;28;20022;-73
2021/11/29 10:07:39;;;;;;;8.82;4.90;;;3.10;99.90;;;;;;5062863;28;20047;-74
2021/11/29 10:10:31;;;;;;;9.45;5.20;;;3.20;99.90;;;;;;5063396;28;20108;-74
2021/11/29 10:13:03;;;;;;;5.30;4.25;;;3.30;99.90;;;;;;5059765;28;20105;-72
2021/11/29 10:15:35;;;;;;;9.00;5.10;;;3.60;99.90;;;;;;5045449;28;20384;-75
2021/11/29 10:18:09;;;;;;;6.95;3.85;;;3.70;99.90;;;;;;5040021;28;20021;-74
2021/11/29 10:21:02;;;;;;;4.68;2.65;;;3.80;99.90;;;;;;5059507;28;20021;-72
2021/11/29 10:23:29;;;;;;;7.13;3.90;;;3.60;99.90;;;;;;5078234;22;20065;-78
2021/11/29 10:25:58;;;;;;;7.90;4.22;;;3.60;99.90;;;;;;5063564;28;20025;-78
2021/11/29 10:28:27;;;;;;;7.75;4.22;;;3.90;99.90;;;;;;5062976;28;20029;-79
2021/11/29 10:31:14;;;;;;;6.10;3.50;;;4.10;99.90;;;;;;5045727;28;20021;-79
2021/11/29 10:34:02;;;;;;;8.50;4.22;;;4.00;99.90;;;;;;5062005;28;20053;-79
2021/11/29 10:36:32;;;;;;;10.68;3.70;;;3.80;99.90;;;;;;5048333;28;20021;-79
2021/11/29 10:39:01;;;;;;;5.50;4.13;;;3.80;99.90;;;;;;5032812;28;20051;-78
2021/11/29 10:41:30;;;;;;;6.00;3.53;;;3.70;99.90;;;;;;5064594;28;20029;-79
2021/11/29 10:43:57;;;;;;;4.43;3.72;;;3.70;99.90;;;;;;5063302;28;20035;-80
2021/11/29 10:46:32;;;;;;;9.20;3.95;;;3.70;99.90;;;;;;5063243;28;20032;-78
2021/11/29 10:49:08;;;;;;;7.63;4.10;;;3.60;99.90;;;;;;5062413;28;20025;-79
2021/11/29 10:51:36;;;;;;;7.22;3.10;;;3.80;99.90;;;;;;5062275;28;20021;-78
2021/11/29 10:54:03;;;;;;;6.05;4.18;;;3.60;99.90;;;;;;5050060;28;20029;-80
2021/11/29 10:56:31;;;;;;;5.97;3.25;;;3.70;99.90;;;;;;5062893;28;20025;-79
2021/11/29 10:59:02;;;;;;;6.25;4.05;;;3.90;99.90;;;;;;5063839;28;20051;-78
2021/11/29 11:01:51;;;;;;;9.50;4.13;;;4.20;99.90;;;;;;5072777;28;20028;-78
2021/11/29 11:04:26;;;;;;;18.30;6.28;;;4.20;99.90;;;;;;5037224;28;20119;-79
2021/11/29 11:06:58;;;;;;;6.28;3.90;;;4.20;99.90;;;;;;5073814;28;20017;-79
2021/11/29 11:09:36;;;;;;;5.22;4.40;;;3.90;99.90;;;;;;5075164;28;20052;-78
2021/11/29 11:12:04;;;;;;;9.30;4.20;;;3.70;99.90;;;;;;5075777;28;20017;-78
2021/11/29 11:14:50;;;;;;;7.40;4.72;;;3.60;99.90;;;;;;5075766;28;20081;-78
2021/11/29 11:17:17;;;;;;;9.02;4.30;;;3.50;99.90;;;;;;5068682;28;20118;-79
2021/11/29 11:19:44;;;;;;;5.40;4.45;;;3.60;99.90;;;;;;5071278;28;20385;-79
2021/11/29 11:22:31;;;;;;;5.40;3.78;;;3.60;99.90;;;;;;5050196;28;20033;-78
2021/11/29 11:25:03;;;;;;;5.18;4.03;;;3.60;99.90;;;;;;5067431;28;20044;-78
2021/11/29 11:27:41;;;;;;;6.35;3.75;;;3.60;99.90;;;;;;5069166;28;20080;-78
2021/11/29 11:30:14;;;;;;;7.15;4.35;;;3.50;99.90;;;;;;5070412;28;20496;-80
2021/11/29 11:32:43;;;;;;;8.95;4.78;;;3.40;99.90;;;;;;5071706;28;20021;-77
2021/11/29 11:35:14;;;;;;;6.70;4.18;;;3.40;99.90;;;;;;5070900;28;20017;-80
2021/11/29 11:37:49;;;;;;;6.25;4.30;;;3.50;99.90;;;;;;5068269;28;20025;-78
2021/11/29 11:40:20;;;;;;;4.75;3.78;;;3.40;99.90;;;;;;5065355;28;20082;-79
2021/11/29 11:42:47;;;;;;;8.85;4.65;;;3.40;99.90;;;;;;5064893;28;20113;-79
2021/11/29 11:45:22;;;;;;;9.13;5.07;;;3.40;99.90;;;;;;5064938;28;20084;-78
2021/11/29 11:47:49;;;;;;;13.02;4.95;;;3.30;99.90;;;;;;5051777;28;20020;-78
2021/11/29 11:50:17;;;;;;;6.13;4.53;;;3.20;99.90;;;;;;5050168;28;20049;-79
2021/11/29 11:52:44;;;;;;;6.55;3.92;;;3.30;99.90;;;;;;5069483;28;20040;-78
2021/11/29 11:55:13;;;;;;;5.82;4.60;;;3.40;99.90;;;;;;5057107;28;20044;-79
2021/11/29 11:57:40;;;;;;;5.55;4.13;;;3.50;99.90;;;;;;5075616;28;20013;-79
2021/11/29 12:00:36;;;;;;;5.93;4.43;;;3.50;99.90;;;;;;5075548;28;20475;-80
2021/11/29 12:03:20;;;;;;;6.57;3.80;;;3.70;99.90;;;;;;5072635;28;20036;-80
2021/11/29 12:05:51;;;;;;;11.52;4.35;;;3.70;99.90;;;;;;5066818;28;20021;-80
2021/11/29 12:08:47;;;;;;;6.93;4.47;;;3.60;99.90;;;;;;5047657;28;20760;-78
2021/11/29 12:14:02;;;;;;;6.63;5.05;;;3.60;99.90;;;;;;5061613;28;20405;-78
2021/11/29 12:16:34;;;;;;;5.35;3.63;;;3.50;99.90;;;;;;5062768;28;20025;-79
2021/11/29 12:19:00;;;;;;;5.97;4.78;;;3.60;99.90;;;;;;5065357;28;20052;-79
2021/11/29 12:21:39;;;;;;;6.40;4.32;;;3.70;99.90;;;;;;5063284;28;20094;-80
2021/11/29 12:24:19;;;;;;;8.52;4.80;;;3.80;99.90;;;;;;5061380;28;20048;-77
2021/11/29 12:26:45;;;;;;;11.02;5.43;;;3.70;99.90;;;;;;5066187;28;20021;-79
2021/11/29 12:29:23;;;;;;;5.72;4.43;;;3.80;99.90;;;;;;5065166;28;20441;-78
2021/11/29 12:32:04;;;;;;;5.13;4.63;;;3.90;99.90;;;;;;5070380;28;20028;-79
2021/11/29 12:34:49;;;;;;;5.68;4.15;;;4.00;99.90;;;;;;5050674;28;20096;-79
2021/11/29 12:37:19;;;;;;;6.20;4.47;;;3.90;99.90;;;;;;5072311;28;20074;-79
2021/11/29 12:39:45;;;;;;;6.03;5.43;;;3.80;99.90;;;;;;5067894;28;20021;-78
2021/11/29 12:42:33;;;;;;;8.25;5.30;;;3.80;99.90;;;;;;5069945;28;20025;-78
2021/11/29 12:45:08;;;;;;;5.75;4.70;;;3.70;99.90;;;;;;5064179;28;20063;-77
2021/11/29 12:47:52;;;;;;;6.43;3.75;;;3.70;99.90;;;;;;5069419;28;20035;-79
2021/11/29 12:50:54;;;;;;;8.60;4.53;;;3.70;99.90;;;;;;5070801;28;20020;-78